Time;durP1;ratioP1;P1;durP2;ratioP2;P2;SDS_P1;SDS_P2;PMS_P1;PMS_P2;Temp;Humidity;BMP_temperature;BMP_pressure;BME280_temperature;BME280_humidity;BME280_pressure;Samples;Min_cycle;Max_cycle;Signal;HPM_P1;HPM_P2
2022/04/24 00:01:11;;;;;;;9.95;7.88;;;11.10;99.90;;;;;;5083451;28;20036;-63
2022/04/24 00:03:37;;;;;;;10.63;8.23;;;11.00;99.90;;;;;;5089385;28;20040;-63
2022/04/24 00:06:03;;;;;;;10.45;8.27;;;11.00;99.90;;;;;;5085300;28;20067;-65
2022/04/24 00:08:29;;;;;;;12.48;8.60;;;11.00;99.90;;;;;;5084549;28;20078;-63
2022/04/24 00:10:54;;;;;;;11.05;7.95;;;11.00;99.90;;;;;;5083712;28;20072;-64
2022/04/24 00:13:20;;;;;;;9.50;7.68;;;11.00;99.90;;;;;;5086488;28;20044;-63
2022/04/24 00:15:46;;;;;;;11.52;7.88;;;11.00;99.90;;;;;;5087339;28;20044;-63
2022/04/24 00:18:12;;;;;;;10.68;8.05;;;11.00;99.90;;;;;;5084855;28;20069;-63
2022/04/24 00:20:37;;;;;;;11.25;7.68;;;11.00;99.90;;;;;;5083355;28;21165;-63
2022/04/24 00:23:03;;;;;;;10.18;7.35;;;10.90;99.90;;;;;;5083642;28;20067;-65
2022/04/24 00:25:28;;;;;;;10.77;7.57;;;10.90;99.90;;;;;;5085270;28;20079;-64
2022/04/24 00:27:54;;;;;;;10.63;7.88;;;10.90;99.90;;;;;;5086069;28;20637;-64
2022/04/24 00:30:20;;;;;;;10.40;7.20;;;10.90;99.90;;;;;;5086690;28;20957;-64
2022/04/24 00:32:45;;;;;;;10.80;7.93;;;10.80;99.90;;;;;;5083643;28;20113;-63
2022/04/24 00:35:11;;;;;;;8.90;6.72;;;10.80;99.90;;;;;;5088513;28;20036;-64
2022/04/24 00:37:36;;;;;;;9.43;6.78;;;10.80;99.90;;;;;;5089537;28;20079;-63
2022/04/24 00:40:02;;;;;;;10.98;7.22;;;10.80;99.90;;;;;;5090202;28;20127;-63
2022/04/24 00:42:29;;;;;;;9.60;7.25;;;10.80;99.90;;;;;;5085485;28;20073;-62
2022/04/24 00:44:55;;;;;;;10.65;7.40;;;10.60;99.90;;;;;;5086539;28;20147;-62
2022/04/24 00:47:22;;;;;;;10.27;7.40;;;10.60;99.90;;;;;;5089227;28;20128;-65
2022/04/24 00:49:48;;;;;;;12.05;7.53;;;10.60;99.90;;;;;;5090681;28;20036;-64
2022/04/24 00:52:14;;;;;;;11.68;7.40;;;10.60;99.90;;;;;;5089744;28;20043;-64
2022/04/24 00:54:40;;;;;;;10.32;7.15;;;10.60;99.90;;;;;;5089174;28;20075;-64
2022/04/24 00:57:10;;;;;;;11.85;7.10;;;10.60;99.90;;;;;;5089289;28;20217;-62
2022/04/24 00:59:39;;;;;;;8.80;7.15;;;10.50;99.90;;;;;;5088546;28;20062;-62
2022/04/24 01:02:06;;;;;;;9.38;7.07;;;10.40;99.90;;;;;;5087637;28;20119;-62
2022/04/24 01:04:36;;;;;;;9.55;7.10;;;10.40;99.90;;;;;;5090884;28;20744;-62
2022/04/24 01:07:03;;;;;;;12.07;7.13;;;10.30;99.90;;;;;;5089475;28;20048;-64
2022/04/24 01:09:32;;;;;;;9.38;6.57;;;10.30;99.90;;;;;;5088348;28;20484;-63
2022/04/24 01:11:58;;;;;;;9.50;6.93;;;10.30;99.90;;;;;;5085287;28;20075;-62
2022/04/24 01:14:25;;;;;;;10.57;6.82;;;10.30;99.90;;;;;;5090633;28;20067;-62
2022/04/24 01:16:52;;;;;;;13.63;6.70;;;10.30;99.90;;;;;;5090135;28;20115;-63
2022/04/24 01:19:17;;;;;;;9.68;7.22;;;10.30;99.90;;;;;;5086988;28;20131;-62
2022/04/24 01:21:45;;;;;;;9.77;6.88;;;10.20;99.90;;;;;;5089923;28;20142;-62
2022/04/24 01:24:12;;;;;;;9.18;6.75;;;10.20;99.90;;;;;;5088678;28;20139;-62
2022/04/24 01:26:38;;;;;;;10.82;7.05;;;10.20;99.90;;;;;;5091735;28;20390;-62
2022/04/24 01:29:05;;;;;;;9.75;6.68;;;10.10;99.90;;;;;;5086020;28;20093;-64
2022/04/24 01:31:31;;;;;;;8.95;6.60;;;10.20;99.90;;;;;;5087750;28;20147;-63
2022/04/24 01:33:57;;;;;;;8.40;6.70;;;10.20;99.90;;;;;;5087674;28;20032;-62
2022/04/24 01:36:23;;;;;;;10.55;6.68;;;10.10;99.90;;;;;;5086145;28;20551;-63
2022/04/24 01:38:49;;;;;;;9.18;6.35;;;10.10;99.90;;;;;;5082733;28;20051;-61
2022/04/24 01:41:14;;;;;;;8.50;6.20;;;10.00;99.90;;;;;;5091074;28;20379;-62
2022/04/24 01:43:41;;;;;;;11.30;6.65;;;10.00;99.90;;;;;;5087385;28;20055;-63
2022/04/24 01:46:08;;;;;;;8.68;6.60;;;9.90;99.90;;;;;;5090943;28;20141;-61
2022/04/24 01:48:34;;;;;;;9.27;6.72;;;9.90;99.90;;;;;;5084308;28;20050;-63
2022/04/24 01:51:05;;;;;;;9.65;6.60;;;9.90;99.90;;;;;;5083490;28;20036;-62
2022/04/24 01:53:31;;;;;;;10.05;6.68;;;9.90;99.90;;;;;;5082943;28;20051;-62
2022/04/24 01:55:58;;;;;;;9.45;6.63;;;9.80;99.90;;;;;;5081994;28;20056;-63
2022/04/24 01:58:24;;;;;;;9.60;7.20;;;9.70;99.90;;;;;;5085285;28;20396;-62
2022/04/24 02:00:51;;;;;;;9.88;6.57;;;9.70;99.90;;;;;;5087068;28;20036;-63
2022/04/24 02:03:17;;;;;;;9.13;6.80;;;9.70;99.90;;;;;;5085991;28;20037;-62
2022/04/24 02:05:42;;;;;;;8.80;6.18;;;9.60;99.90;;;;;;5088702;28;20051;-62
2022/04/24 02:08:08;;;;;;;9.25;6.63;;;9.60;99.90;;;;;;5087838;28;20044;-62
2022/04/24 02:10:33;;;;;;;8.85;6.55;;;9.50;99.90;;;;;;5089739;28;20455;-62
2022/04/24 02:12:59;;;;;;;10.50;6.20;;;9.50;99.90;;;;;;5086661;28;20066;-62
2022/04/24 02:15:24;;;;;;;9.35;6.50;;;9.50;99.90;;;;;;5086589;28;20044;-63
2022/04/24 02:17:50;;;;;;;11.43;6.85;;;9.40;99.90;;;;;;5087182;28;20036;-62
2022/04/24 02:20:16;;;;;;;10.93;6.45;;;9.40;99.90;;;;;;5083754;28;20559;-64
2022/04/24 02:22:41;;;;;;;11.05;6.55;;;9.40;99.90;;;;;;5086956;28;20032;-63
2022/04/24 02:25:07;;;;;;;8.98;6.95;;;9.40;99.90;;;;;;5082686;28;20115;-63
2022/04/24 02:27:32;;;;;;;9.50;6.47;;;9.30;99.90;;;;;;5086554;28;20405;-62
2022/04/24 02:29:58;;;;;;;9.27;6.85;;;9.30;99.90;;;;;;5088104;28;20431;-63
2022/04/24 02:32:23;;;;;;;9.25;6.65;;;9.30;99.90;;;;;;5085726;28;20475;-64
2022/04/24 02:34:49;;;;;;;9.35;6.18;;;9.30;99.90;;;;;;5086614;28;20484;-62
2022/04/24 02:37:15;;;;;;;8.05;6.38;;;9.30;99.90;;;;;;5084944;28;20119;-61
2022/04/24 02:39:40;;;;;;;8.18;6.10;;;9.30;99.90;;;;;;5081831;28;20047;-62
2022/04/24 02:42:06;;;;;;;8.98;6.25;;;9.20;99.90;;;;;;5086795;28;20040;-61
2022/04/24 02:44:32;;;;;;;8.35;5.97;;;9.20;99.90;;;;;;5089059;28;20036;-62
2022/04/24 02:46:57;;;;;;;9.88;6.82;;;9.20;99.90;;;;;;5087218;28;20043;-62
2022/04/24 02:49:23;;;;;;;8.30;6.35;;;9.10;99.90;;;;;;5084515;28;20066;-62
2022/04/24 02:51:48;;;;;;;8.10;6.05;;;9.10;99.90;;;;;;5089260;28;20032;-62
2022/04/24 02:54:14;;;;;;;8.27;6.32;;;9.10;99.90;;;;;;5084808;28;20222;-63
2022/04/24 02:56:41;;;;;;;12.82;6.88;;;9.10;99.90;;;;;;5084125;28;20059;-63
2022/04/24 02:59:07;;;;;;;10.00;6.85;;;9.10;99.90;;;;;;5086699;28;20048;-62
2022/04/24 03:01:34;;;;;;;9.48;6.18;;;9.00;99.90;;;;;;5086380;28;20055;-62
2022/04/24 03:03:59;;;;;;;9.32;6.70;;;8.90;99.90;;;;;;5085945;28;20181;-62
2022/04/24 03:06:25;;;;;;;10.10;6.78;;;8.90;99.90;;;;;;5083992;28;20078;-62
2022/04/24 03:08:51;;;;;;;8.60;6.50;;;8.90;99.90;;;;;;5083014;28;20036;-62
2022/04/24 03:11:16;;;;;;;8.95;6.45;;;8.90;99.90;;;;;;5083925;28;20043;-63
2022/04/24 03:13:42;;;;;;;10.77;6.82;;;8.80;99.90;;;;;;5084950;28;20044;-63
2022/04/24 03:16:09;;;;;;;11.10;6.40;;;8.80;99.90;;;;;;5086317;28;20043;-62
2022/04/24 03:18:35;;;;;;;7.65;6.05;;;8.70;99.90;;;;;;5088916;28;20042;-63
2022/04/24 03:21:01;;;;;;;10.88;6.72;;;8.70;99.90;;;;;;5082858;28;20048;-63
2022/04/24 03:23:26;;;;;;;9.57;6.30;;;8.70;99.90;;;;;;5084218;28;20051;-62
2022/04/24 03:25:52;;;;;;;10.02;6.82;;;8.60;99.90;;;;;;5089291;28;20063;-62
2022/04/24 03:28:18;;;;;;;9.82;6.70;;;8.60;99.90;;;;;;5086360;28;20050;-64
2022/04/24 03:30:44;;;;;;;9.25;6.15;;;8.50;99.90;;;;;;5087415;28;20063;-62
2022/04/24 03:33:10;;;;;;;9.57;5.95;;;8.60;99.90;;;;;;5087188;28;20040;-62
2022/04/24 03:35:36;;;;;;;9.95;6.55;;;8.50;99.90;;;;;;5087073;28;20040;-62
2022/04/24 03:38:03;;;;;;;9.55;6.68;;;8.50;99.90;;;;;;5079160;28;20377;-63
2022/04/24 03:40:28;;;;;;;9.05;6.38;;;8.50;99.90;;;;;;5076698;28;20124;-62
2022/04/24 03:42:54;;;;;;;9.50;6.28;;;8.50;99.90;;;;;;5085070;28;20069;-64
2022/04/24 03:45:20;;;;;;;11.13;6.30;;;8.50;99.90;;;;;;5087925;28;20036;-62
2022/04/24 03:47:47;;;;;;;8.80;6.63;;;8.50;99.90;;;;;;5086620;28;20035;-62
2022/04/24 03:50:14;;;;;;;8.15;6.05;;;8.50;99.90;;;;;;5087477;28;20055;-63
2022/04/24 03:52:40;;;;;;;10.18;6.47;;;8.40;99.90;;;;;;5084551;28;20040;-63
2022/04/24 03:55:07;;;;;;;8.82;6.82;;;8.40;99.90;;;;;;5086184;28;20382;-63
2022/04/24 03:57:33;;;;;;;9.63;6.40;;;8.40;99.90;;;;;;5087170;28;20387;-63
2022/04/24 03:59:59;;;;;;;11.98;6.38;;;8.30;99.90;;;;;;5086479;28;20040;-62
2022/04/24 04:02:25;;;;;;;10.52;6.65;;;8.20;99.90;;;;;;5086605;28;20135;-62
2022/04/24 04:04:50;;;;;;;9.40;6.70;;;8.20;99.90;;;;;;5085252;28;20628;-62
2022/04/24 04:07:16;;;;;;;9.68;7.03;;;8.10;99.90;;;;;;5083853;28;20036;-62
2022/04/24 04:09:41;;;;;;;8.73;5.93;;;8.00;99.90;;;;;;5082602;28;20047;-64
2022/04/24 04:12:08;;;;;;;12.40;6.55;;;8.00;99.90;;;;;;5085019;28;20070;-62
2022/04/24 04:14:33;;;;;;;9.77;6.95;;;8.00;99.90;;;;;;5087726;28;20216;-62
2022/04/24 04:16:59;;;;;;;9.00;6.07;;;8.10;99.90;;;;;;5088143;28;20494;-63
2022/04/24 04:19:24;;;;;;;8.30;6.13;;;8.10;99.90;;;;;;5084455;28;20036;-62
2022/04/24 04:21:50;;;;;;;8.65;6.68;;;8.00;99.90;;;;;;5085449;28;20107;-62
2022/04/24 04:24:17;;;;;;;9.13;6.63;;;7.90;99.90;;;;;;5083950;28;20162;-63
2022/04/24 04:26:42;;;;;;;13.10;6.60;;;7.90;99.90;;;;;;5083708;28;20760;-62
2022/04/24 04:29:08;;;;;;;9.23;5.97;;;7.90;99.90;;;;;;5083528;28;20055;-62
2022/04/24 04:31:34;;;;;;;10.07;6.40;;;7.90;99.90;;;;;;5083908;28;20044;-62
2022/04/24 04:33:59;;;;;;;10.32;6.53;;;7.80;99.90;;;;;;5082975;28;20115;-63
2022/04/24 04:36:25;;;;;;;9.02;5.90;;;7.80;99.90;;;;;;5082287;28;20059;-62
2022/04/24 04:38:50;;;;;;;9.45;6.28;;;7.80;99.90;;;;;;5080393;28;20483;-62
2022/04/24 04:41:16;;;;;;;8.90;6.55;;;7.80;99.90;;;;;;5082809;28;20376;-62
2022/04/24 04:43:41;;;;;;;9.27;6.85;;;7.90;99.90;;;;;;5081443;28;20040;-62
2022/04/24 04:46:07;;;;;;;10.63;6.90;;;7.80;99.90;;;;;;5081226;28;20044;-62
2022/04/24 04:48:33;;;;;;;8.35;6.03;;;7.80;99.90;;;;;;5081233;28;20040;-62
2022/04/24 04:50:58;;;;;;;9.48;6.30;;;7.90;99.90;;;;;;5079557;28;20664;-62
2022/04/24 04:53:24;;;;;;;9.63;5.95;;;7.90;99.90;;;;;;5081663;28;20094;-64
2022/04/24 04:55:50;;;;;;;17.77;6.55;;;7.90;99.90;;;;;;5080774;28;20059;-63
2022/04/24 04:58:15;;;;;;;9.85;6.57;;;8.10;99.90;;;;;;5081934;28;20195;-62
2022/04/24 05:00:41;;;;;;;11.63;6.85;;;8.20;99.90;;;;;;5081353;28;20048;-62
2022/04/24 05:03:07;;;;;;;9.20;6.82;;;8.20;99.90;;;;;;5080144;28;20074;-62
2022/04/24 05:05:33;;;;;;;9.77;6.80;;;8.40;99.90;;;;;;5080643;28;20116;-62
2022/04/24 05:07:58;;;;;;;8.35;6.38;;;8.50;99.90;;;;;;5082069;28;20166;-61
2022/04/24 05:10:24;;;;;;;8.23;6.68;;;8.60;99.90;;;;;;5080560;28;20044;-64
2022/04/24 05:12:50;;;;;;;9.52;6.22;;;8.60;99.90;;;;;;5080435;28;20044;-62
2022/04/24 05:15:16;;;;;;;9.18;6.35;;;8.60;99.90;;;;;;5079947;28;20040;-61
2022/04/24 05:17:44;;;;;;;9.27;6.47;;;8.60;99.90;;;;;;5084462;28;20079;-63
2022/04/24 05:20:11;;;;;;;9.40;6.35;;;8.60;99.90;;;;;;5083573;28;20040;-63
2022/04/24 05:22:37;;;;;;;9.93;6.90;;;8.70;99.90;;;;;;5086002;28;20055;-61
2022/04/24 05:25:05;;;;;;;11.90;6.47;;;8.60;99.90;;;;;;5084976;28;20147;-62
2022/04/24 05:27:31;;;;;;;9.07;6.28;;;8.70;99.90;;;;;;5089678;28;20040;-62
2022/04/24 05:29:56;;;;;;;11.05;6.00;;;8.70;99.90;;;;;;5083293;28;20032;-62
2022/04/24 05:32:22;;;;;;;8.98;6.32;;;8.70;99.90;;;;;;5087177;28;20539;-62
2022/04/24 05:34:48;;;;;;;7.53;5.80;;;8.80;99.90;;;;;;5084445;28;20043;-62
2022/04/24 05:37:13;;;;;;;9.50;6.30;;;8.80;99.90;;;;;;5084478;28;20039;-63
2022/04/24 05:39:39;;;;;;;9.95;6.35;;;8.90;99.90;;;;;;5078850;28;20047;-62
2022/04/24 05:42:05;;;;;;;10.40;6.32;;;8.80;99.90;;;;;;5083587;28;20051;-62
2022/04/24 05:44:30;;;;;;;8.43;6.10;;;8.80;99.90;;;;;;5080691;28;20036;-62
2022/04/24 05:46:56;;;;;;;8.50;6.30;;;8.70;99.90;;;;;;5085148;28;20040;-62
2022/04/24 05:49:21;;;;;;;8.23;6.13;;;8.80;99.90;;;;;;5083060;28;20521;-63
2022/04/24 05:51:47;;;;;;;8.90;5.97;;;8.90;99.90;;;;;;5083905;28;20134;-63
2022/04/24 05:54:13;;;;;;;10.05;6.68;;;8.90;99.90;;;;;;5084665;28;20463;-63
2022/04/24 05:56:39;;;;;;;9.90;5.90;;;8.90;99.90;;;;;;5084615;28;20143;-64
2022/04/24 05:59:05;;;;;;;9.18;6.18;;;9.00;99.90;;;;;;5084340;28;20463;-62
2022/04/24 06:01:31;;;;;;;9.38;5.85;;;9.10;99.90;;;;;;5085624;28;20125;-62
2022/04/24 06:03:56;;;;;;;9.20;6.32;;;9.10;99.90;;;;;;5087137;28;20490;-63
2022/04/24 06:06:22;;;;;;;10.07;6.03;;;9.20;99.90;;;;;;5084557;28;20048;-63
2022/04/24 06:08:47;;;;;;;9.48;6.10;;;9.30;99.90;;;;;;5085343;28;20455;-63
2022/04/24 06:11:13;;;;;;;8.38;6.03;;;9.40;99.90;;;;;;5085435;28;20063;-63
2022/04/24 06:13:42;;;;;;;10.00;6.32;;;9.40;99.90;;;;;;5085492;28;20124;-65
2022/04/24 06:16:07;;;;;;;8.43;6.20;;;9.50;99.90;;;;;;5083171;28;20265;-65
2022/04/24 06:18:33;;;;;;;10.57;5.78;;;9.60;99.90;;;;;;5090567;28;20111;-63
2022/04/24 06:20:59;;;;;;;10.50;6.28;;;9.70;99.90;;;;;;5087858;28;20044;-64
2022/04/24 06:23:27;;;;;;;8.25;5.82;;;9.70;99.90;;;;;;5088854;28;20055;-65
2022/04/24 06:25:53;;;;;;;8.68;5.68;;;9.80;99.90;;;;;;5088064;28;20139;-63
2022/04/24 06:28:18;;;;;;;9.82;5.72;;;10.00;99.90;;;;;;5083269;28;20514;-63
2022/04/24 06:30:44;;;;;;;9.45;5.68;;;10.00;99.90;;;;;;5087808;28;20058;-64
2022/04/24 06:33:11;;;;;;;8.10;5.88;;;10.10;99.90;;;;;;5086101;28;20094;-63
2022/04/24 06:35:37;;;;;;;8.55;5.53;;;10.20;99.90;;;;;;5087312;28;20032;-63
2022/04/24 06:38:04;;;;;;;7.45;5.78;;;10.30;99.90;;;;;;5087964;28;21351;-64
2022/04/24 06:40:30;;;;;;;8.68;5.85;;;10.20;99.90;;;;;;5088859;28;20104;-64
2022/04/24 06:43:01;;;;;;;8.48;5.57;;;10.20;99.90;;;;;;5079183;28;20040;-63
2022/04/24 06:45:38;;;;;;;10.18;5.85;;;10.20;99.90;;;;;;5088414;28;20040;-63
2022/04/24 06:48:11;;;;;;;9.10;6.20;;;10.20;99.90;;;;;;5084829;28;20083;-63
2022/04/24 06:50:39;;;;;;;8.30;5.68;;;10.30;99.90;;;;;;5087202;28;20403;-63
2022/04/24 06:53:10;;;;;;;7.05;5.63;;;10.30;99.90;;;;;;5085159;28;20051;-63
2022/04/24 06:55:42;;;;;;;9.93;5.88;;;10.20;99.90;;;;;;5088291;28;20056;-63
2022/04/24 06:58:10;;;;;;;12.98;6.22;;;10.20;99.90;;;;;;5084657;28;20175;-65
2022/04/24 07:00:38;;;;;;;8.57;5.88;;;10.30;99.90;;;;;;5085614;28;20035;-64
2022/04/24 07:03:10;;;;;;;11.38;6.35;;;10.40;99.90;;;;;;5087187;28;20495;-63
2022/04/24 07:05:36;;;;;;;10.65;6.10;;;10.50;99.90;;;;;;5081687;28;20097;-63
2022/04/24 07:08:01;;;;;;;9.93;6.10;;;10.70;99.90;;;;;;5081626;28;20048;-65
2022/04/24 07:10:27;;;;;;;10.20;6.22;;;10.70;99.90;;;;;;5087338;28;20498;-64
2022/04/24 07:12:54;;;;;;;9.07;5.50;;;10.70;99.90;;;;;;5090281;28;20036;-63
2022/04/24 07:15:22;;;;;;;8.30;5.93;;;10.80;99.90;;;;;;5086931;28;20048;-63
2022/04/24 07:17:49;;;;;;;10.45;6.15;;;10.90;99.90;;;;;;5087792;28;20040;-63
2022/04/24 07:20:17;;;;;;;11.15;6.20;;;11.00;99.90;;;;;;5084822;28;20115;-64
2022/04/24 07:22:47;;;;;;;9.82;6.57;;;11.10;99.90;;;;;;5068320;28;20054;-63
2022/04/24 07:25:18;;;;;;;9.50;5.88;;;11.10;99.90;;;;;;5078897;28;21581;-63
2022/04/24 07:27:44;;;;;;;8.88;5.82;;;11.30;99.90;;;;;;5082894;28;20071;-65
2022/04/24 07:30:14;;;;;;;9.15;5.90;;;11.40;99.90;;;;;;5082221;28;20087;-63
2022/04/24 07:32:48;;;;;;;10.73;6.38;;;11.30;99.90;;;;;;5086610;28;20044;-63
2022/04/24 07:35:16;;;;;;;9.23;6.65;;;11.30;99.90;;;;;;5084809;28;20139;-64
2022/04/24 07:37:42;;;;;;;11.68;5.47;;;11.20;99.90;;;;;;5086511;28;20043;-63
2022/04/24 07:40:10;;;;;;;9.55;5.93;;;11.20;99.90;;;;;;5083640;28;20076;-64
2022/04/24 07:42:54;;;;;;;8.95;6.20;;;11.20;99.90;;;;;;5085845;28;20056;-63
2022/04/24 07:45:23;;;;;;;9.38;6.82;;;11.30;99.90;;;;;;5084522;28;20452;-64
2022/04/24 07:47:49;;;;;;;7.90;5.75;;;11.30;99.90;;;;;;5070690;28;20115;-63
2022/04/24 07:50:16;;;;;;;10.93;6.22;;;11.30;99.90;;;;;;5071999;28;20123;-63
2022/04/24 07:52:43;;;;;;;10.55;5.80;;;11.40;99.90;;;;;;5088370;28;20043;-63
2022/04/24 07:55:11;;;;;;;9.35;6.07;;;11.50;99.90;;;;;;5087039;28;20044;-63
2022/04/24 07:57:38;;;;;;;10.65;6.03;;;11.60;99.90;;;;;;5078657;28;20131;-64
2022/04/24 08:00:04;;;;;;;9.70;6.18;;;11.70;99.50;;;;;;5085008;28;20040;-65
2022/04/24 08:02:30;;;;;;;12.05;6.15;;;11.80;99.40;;;;;;5085741;28;20036;-64
2022/04/24 08:04:55;;;;;;;8.70;6.10;;;11.80;99.50;;;;;;5077302;28;20425;-63
2022/04/24 08:07:22;;;;;;;9.43;5.88;;;11.80;98.90;;;;;;5087022;28;20051;-63
2022/04/24 08:09:51;;;;;;;8.07;5.88;;;11.90;99.10;;;;;;5086850;28;20044;-64
2022/04/24 08:12:16;;;;;;;8.82;5.85;;;12.00;98.00;;;;;;5083830;28;20116;-63
2022/04/24 08:14:42;;;;;;;10.05;5.57;;;12.20;98.60;;;;;;5083385;28;20145;-63
2022/04/24 08:17:07;;;;;;;8.90;5.38;;;12.30;98.90;;;;;;5084076;28;20516;-64
2022/04/24 08:19:33;;;;;;;8.77;6.00;;;12.30;97.90;;;;;;5080051;28;20119;-65
2022/04/24 08:21:59;;;;;;;9.80;6.03;;;12.40;98.00;;;;;;5086889;28;20062;-64
2022/04/24 08:24:24;;;;;;;8.55;5.72;;;12.40;97.90;;;;;;5083049;28;20146;-64
2022/04/24 08:26:50;;;;;;;9.15;5.65;;;12.50;97.40;;;;;;5076830;28;20040;-64
2022/04/24 08:29:16;;;;;;;8.45;5.47;;;12.50;97.10;;;;;;5086714;28;20094;-64
2022/04/24 08:31:41;;;;;;;9.32;5.30;;;12.60;97.30;;;;;;5086357;28;20082;-65
2022/04/24 08:34:07;;;;;;;7.53;5.18;;;12.70;97.00;;;;;;5084672;28;20055;-64
2022/04/24 08:36:32;;;;;;;10.48;5.50;;;12.80;96.70;;;;;;5085721;28;20040;-64
2022/04/24 08:38:58;;;;;;;8.68;5.05;;;12.90;96.20;;;;;;5082343;28;20055;-65
2022/04/24 08:41:27;;;;;;;8.95;5.03;;;13.00;95.40;;;;;;5078169;28;20041;-66
2022/04/24 08:43:55;;;;;;;7.15;4.82;;;13.10;95.20;;;;;;5079893;28;20464;-64
2022/04/24 08:46:22;;;;;;;7.03;4.70;;;13.10;94.50;;;;;;5075442;28;20039;-64
2022/04/24 08:48:47;;;;;;;7.80;4.35;;;13.10;94.60;;;;;;5083914;28;20044;-65
2022/04/24 08:51:15;;;;;;;7.05;4.45;;;13.10;93.80;;;;;;5087312;28;20043;-64
2022/04/24 08:53:41;;;;;;;7.47;4.70;;;13.20;94.50;;;;;;5085488;28;20178;-65
2022/04/24 08:56:07;;;;;;;7.68;4.38;;;13.20;93.30;;;;;;5088236;28;20138;-64
2022/04/24 08:58:32;;;;;;;8.40;4.18;;;13.20;93.60;;;;;;5086475;28;20131;-65
2022/04/24 09:00:58;;;;;;;6.70;4.40;;;13.20;93.30;;;;;;5087133;28;20472;-63
2022/04/24 09:03:24;;;;;;;7.03;4.18;;;13.40;94.00;;;;;;5089911;28;20048;-64
2022/04/24 09:05:49;;;;;;;7.88;3.90;;;13.40;93.40;;;;;;5086052;28;20055;-64
2022/04/24 09:08:15;;;;;;;7.47;4.25;;;13.60;92.00;;;;;;5085696;28;20469;-64
2022/04/24 09:10:55;;;;;;;7.65;3.70;;;13.60;90.90;;;;;;5084763;28;20043;-65
2022/04/24 09:13:25;;;;;;;5.90;3.40;;;13.60;89.50;;;;;;5085619;28;20377;-64
2022/04/24 09:15:58;;;;;;;6.78;3.63;;;13.70;89.80;;;;;;5087168;28;20040;-64
2022/04/24 09:18:40;;;;;;;6.35;3.95;;;13.80;89.80;;;;;;5089438;28;20665;-64
2022/04/24 09:21:05;;;;;;;8.77;3.97;;;13.80;88.20;;;;;;5085193;28;20051;-64
2022/04/24 09:23:35;;;;;;;7.93;3.67;;;13.90;88.80;;;;;;5086726;28;20364;-64
2022/04/24 09:26:01;;;;;;;6.40;3.38;;;14.00;85.90;;;;;;5089953;28;20040;-64
2022/04/24 09:28:38;;;;;;;5.80;3.47;;;14.10;87.70;;;;;;5088279;28;20116;-64
2022/04/24 09:31:05;;;;;;;5.80;3.58;;;14.30;88.40;;;;;;5088137;28;20165;-64
2022/04/24 09:33:38;;;;;;;5.10;3.13;;;14.40;81.70;;;;;;5088918;28;20055;-64
2022/04/24 09:36:05;;;;;;;6.00;3.20;;;14.50;82.60;;;;;;5087713;28;20133;-64
2022/04/24 09:38:30;;;;;;;5.80;3.10;;;14.60;82.30;;;;;;5085124;28;20196;-64
2022/04/24 09:40:56;;;;;;;6.15;2.90;;;14.80;79.90;;;;;;5085753;28;20158;-65
2022/04/24 09:43:21;;;;;;;5.05;2.90;;;14.80;76.10;;;;;;5083091;28;20376;-65
2022/04/24 09:45:49;;;;;;;5.65;2.58;;;14.90;72.90;;;;;;5083686;28;20064;-64
2022/04/24 09:48:20;;;;;;;4.50;2.17;;;15.00;70.10;;;;;;5083356;28;20515;-64
2022/04/24 09:50:48;;;;;;;5.00;2.65;;;15.10;71.40;;;;;;5082534;28;20115;-65
2022/04/24 09:53:16;;;;;;;4.57;2.50;;;15.30;70.50;;;;;;5087461;28;20409;-64
2022/04/24 09:55:43;;;;;;;7.55;2.75;;;15.40;70.40;;;;;;5084652;28;20078;-63
2022/04/24 09:58:10;;;;;;;4.90;2.47;;;15.40;68.70;;;;;;5082904;28;20052;-65
2022/04/24 10:00:36;;;;;;;5.30;2.75;;;15.40;68.00;;;;;;5082587;28;20036;-64
2022/04/24 10:03:02;;;;;;;4.47;2.50;;;15.40;65.80;;;;;;5081970;28;20036;-65
2022/04/24 10:05:30;;;;;;;5.28;2.67;;;15.50;66.00;;;;;;5085234;28;20051;-64
2022/04/24 10:07:56;;;;;;;6.03;2.70;;;15.50;66.70;;;;;;5082444;28;20576;-65
2022/04/24 10:10:22;;;;;;;5.45;2.65;;;15.50;65.50;;;;;;5082658;28;20044;-63
2022/04/24 10:12:50;;;;;;;6.05;2.78;;;15.50;64.80;;;;;;5082976;28;20483;-63
2022/04/24 10:15:18;;;;;;;5.10;2.50;;;15.60;66.40;;;;;;5084025;28;20136;-62
2022/04/24 10:18:06;;;;;;;4.60;2.70;;;15.50;66.30;;;;;;5081037;28;20040;-62
2022/04/24 10:21:03;;;;;;;5.07;2.85;;;15.70;67.10;;;;;;5083620;28;20084;-62
2022/04/24 10:23:32;;;;;;;4.45;2.67;;;15.70;65.80;;;;;;5084090;28;20048;-62
2022/04/24 10:25:58;;;;;;;4.50;2.58;;;15.80;64.70;;;;;;5084073;28;20063;-62
2022/04/24 10:28:36;;;;;;;5.75;2.78;;;15.90;66.30;;;;;;5083179;28;20073;-63
2022/04/24 10:31:03;;;;;;;5.70;3.15;;;16.00;65.60;;;;;;5080573;28;20052;-64
2022/04/24 10:33:30;;;;;;;5.25;2.90;;;16.00;64.70;;;;;;5084636;28;20720;-62
2022/04/24 10:36:12;;;;;;;5.32;2.88;;;16.10;63.90;;;;;;5083565;28;20078;-64
2022/04/24 10:38:52;;;;;;;4.88;2.67;;;16.10;61.90;;;;;;5083877;28;20103;-63
2022/04/24 10:41:25;;;;;;;5.65;2.80;;;16.20;61.50;;;;;;5083632;28;20705;-64
2022/04/24 10:43:57;;;;;;;5.50;2.88;;;16.20;61.80;;;;;;5081815;28;20427;-64
2022/04/24 10:46:26;;;;;;;6.72;2.70;;;16.20;61.50;;;;;;5080686;28;20123;-63
2022/04/24 10:48:53;;;;;;;4.72;3.00;;;16.20;61.20;;;;;;5081939;28;20075;-64
2022/04/24 10:51:30;;;;;;;5.10;2.90;;;16.30;61.00;;;;;;5081001;28;20070;-63
2022/04/24 10:54:01;;;;;;;5.45;2.83;;;16.30;61.10;;;;;;5081526;28;21617;-63
2022/04/24 10:56:29;;;;;;;5.80;2.78;;;16.30;60.60;;;;;;5084110;28;20052;-63
2022/04/24 10:59:07;;;;;;;5.22;2.60;;;16.30;62.20;;;;;;5082620;28;20372;-63
2022/04/24 11:01:37;;;;;;;4.90;2.80;;;16.40;62.50;;;;;;5088984;28;20419;-64
2022/04/24 11:04:07;;;;;;;5.80;3.03;;;16.60;63.50;;;;;;5086547;28;20101;-65
2022/04/24 11:06:33;;;;;;;5.88;2.65;;;16.60;60.90;;;;;;5086450;28;20085;-63
2022/04/24 11:09:13;;;;;;;6.22;3.08;;;16.50;60.90;;;;;;5086966;28;20078;-64
2022/04/24 11:11:52;;;;;;;5.95;2.85;;;16.60;59.80;;;;;;5083743;28;20083;-63
2022/04/24 11:14:20;;;;;;;6.18;2.58;;;16.70;58.70;;;;;;5083080;28;20067;-63
2022/04/24 11:16:53;;;;;;;5.85;3.13;;;16.70;59.40;;;;;;5082423;28;20079;-63
2022/04/24 11:19:23;;;;;;;4.60;2.50;;;16.90;58.90;;;;;;5087342;28;20050;-62
2022/04/24 11:21:55;;;;;;;3.65;2.13;;;16.90;59.00;;;;;;5087950;28;20052;-63
2022/04/24 11:24:21;;;;;;;5.13;2.40;;;17.00;58.80;;;;;;5086391;28;20139;-63
2022/04/24 11:26:48;;;;;;;5.78;2.50;;;16.80;56.80;;;;;;5086676;28;20119;-63
2022/04/24 11:29:13;;;;;;;3.13;1.88;;;16.70;55.00;;;;;;5077483;28;20040;-63
2022/04/24 11:31:50;;;;;;;5.50;2.20;;;16.70;55.00;;;;;;5088386;28;20040;-62
2022/04/24 11:34:23;;;;;;;4.38;2.00;;;16.80;55.20;;;;;;5085462;28;20114;-62
2022/04/24 11:36:50;;;;;;;4.38;1.83;;;16.80;56.40;;;;;;5088430;28;20337;-63
2022/04/24 11:39:17;;;;;;;5.45;1.95;;;16.90;57.80;;;;;;5088707;28;20132;-63
2022/04/24 11:41:46;;;;;;;3.72;1.65;;;16.90;57.80;;;;;;5088013;28;20486;-62
2022/04/24 11:52:36;;;;;;;5.07;1.92;;;17.20;55.80;;;;;;5076277;28;20534;-63
2022/04/24 11:56:01;;;;;;;3.85;1.60;;;17.20;56.60;;;;;;5086858;28;20091;-66
2022/04/24 11:58:09;;;;;;;3.78;1.98;;;17.20;52.10;;;;;;5089817;28;20048;-63
2022/04/24 12:00:39;;;;;;;3.83;1.80;;;17.20;54.60;;;;;;5088317;28;20097;-63
2022/04/24 12:03:06;;;;;;;4.68;1.92;;;17.40;56.20;;;;;;5087075;28;20140;-64
2022/04/24 12:05:32;;;;;;;4.07;1.70;;;17.30;56.00;;;;;;5088419;28;20044;-65
2022/04/24 12:07:58;;;;;;;4.30;2.08;;;17.20;55.60;;;;;;5088921;28;20047;-65
2022/04/24 12:10:26;;;;;;;4.40;1.85;;;17.20;55.40;;;;;;5087857;28;20449;-64
2022/04/24 12:12:54;;;;;;;3.95;1.88;;;17.10;54.80;;;;;;5088290;28;20059;-64
2022/04/24 12:15:22;;;;;;;5.22;2.10;;;17.10;54.00;;;;;;5087334;28;20432;-64
2022/04/24 12:17:59;;;;;;;5.13;2.00;;;17.00;56.70;;;;;;5089111;28;20036;-65
2022/04/24 12:20:38;;;;;;;3.92;2.03;;;17.00;55.80;;;;;;5088223;28;20036;-64
2022/04/24 12:23:15;;;;;;;3.42;1.80;;;16.80;54.90;;;;;;5087795;28;20043;-64
2022/04/24 12:25:54;;;;;;;6.07;2.03;;;16.70;54.00;;;;;;5088995;28;20044;-63
2022/04/24 12:28:35;;;;;;;5.25;2.20;;;16.90;55.50;;;;;;5087049;28;20064;-64
2022/04/24 12:31:02;;;;;;;4.85;1.77;;;17.20;55.70;;;;;;5086660;28;20040;-63
2022/04/24 12:33:31;;;;;;;4.88;2.10;;;17.60;54.90;;;;;;5083486;28;20578;-64
2022/04/24 12:36:14;;;;;;;4.13;1.67;;;17.70;52.00;;;;;;5079290;28;20032;-64
2022/04/24 12:38:41;;;;;;;4.40;2.15;;;18.00;53.20;;;;;;5085503;28;20056;-64
2022/04/24 12:41:11;;;;;;;4.95;1.98;;;17.70;54.00;;;;;;5086999;28;20048;-65
2022/04/24 12:43:37;;;;;;;4.63;2.00;;;17.70;55.30;;;;;;5088908;28;20048;-64
2022/04/24 12:46:05;;;;;;;5.15;2.20;;;17.30;55.30;;;;;;5087639;28;20391;-65
2022/04/24 12:48:31;;;;;;;4.85;1.90;;;17.10;55.20;;;;;;5087439;28;20503;-67
2022/04/24 12:50:56;;;;;;;4.57;1.90;;;17.30;57.30;;;;;;5087155;28;20132;-65
2022/04/24 12:53:23;;;;;;;4.10;1.70;;;17.40;57.20;;;;;;5086443;28;20051;-65
2022/04/24 12:55:51;;;;;;;3.85;1.55;;;17.50;56.30;;;;;;5087948;28;20074;-64
2022/04/24 12:58:18;;;;;;;3.28;1.80;;;17.50;54.30;;;;;;5084855;28;20111;-65